sensor_id;sensor_type;location;lat;lon;timestamp;P1;durP1;ratioP1;P2;durP2;ratioP2
42000;SDS011;27689;48.390;10.856;2023-05-07T00:00:37;10.68;;;8.00;;
42000;SDS011;27689;48.390;10.856;2023-05-07T00:03:21;9.48;;;7.15;;
42000;SDS011;27689;48.390;10.856;2023-05-07T00:06:05;9.50;;;7.50;;
42000;SDS011;27689;48.390;10.856;2023-05-07T00:08:49;12.30;;;7.60;;
42000;SDS011;27689;48.390;10.856;2023-05-07T00:11:33;9.33;;;8.27;;
42000;SDS011;27689;48.390;10.856;2023-05-07T00:14:17;11.25;;;7.57;;
42000;SDS011;27689;48.390;10.856;2023-05-07T00:17:01;10.00;;;7.80;;
42000;SDS011;27689;48.390;10.856;2023-05-07T00:19:45;10.20;;;7.40;;
42000;SDS011;27689;48.390;10.856;2023-05-07T00:25:15;8.32;;;7.32;;
42000;SDS011;27689;48.390;10.856;2023-05-07T00:27:59;8.70;;;7.73;;
42000;SDS011;27689;48.390;10.856;2023-05-07T00:30:47;7.85;;;6.68;;
42000;SDS011;27689;48.390;10.856;2023-05-07T00:33:31;9.77;;;7.43;;
42000;SDS011;27689;48.390;10.856;2023-05-07T00:36:15;8.43;;;6.90;;
42000;SDS011;27689;48.390;10.856;2023-05-07T00:38:59;8.57;;;6.70;;
42000;SDS011;27689;48.390;10.856;2023-05-07T00:41:45;8.20;;;6.97;;
42000;SDS011;27689;48.390;10.856;2023-05-07T00:44:29;8.57;;;6.78;;
42000;SDS011;27689;48.390;10.856;2023-05-07T00:47:13;10.57;;;6.82;;
42000;SDS011;27689;48.390;10.856;2023-05-07T00:49:57;8.50;;;6.20;;
42000;SDS011;27689;48.390;10.856;2023-05-07T00:52:42;9.60;;;6.70;;
42000;SDS011;27689;48.390;10.856;2023-05-07T00:55:26;7.90;;;5.75;;
42000;SDS011;27689;48.390;10.856;2023-05-07T00:58:10;11.13;;;6.35;;
42000;SDS011;27689;48.390;10.856;2023-05-07T01:00:54;7.88;;;6.93;;
42000;SDS011;27689;48.390;10.856;2023-05-07T01:03:38;8.38;;;5.95;;
42000;SDS011;27689;48.390;10.856;2023-05-07T01:06:22;10.10;;;7.20;;
42000;SDS011;27689;48.390;10.856;2023-05-07T01:09:09;8.27;;;6.90;;
42000;SDS011;27689;48.390;10.856;2023-05-07T01:11:53;9.23;;;6.85;;
42000;SDS011;27689;48.390;10.856;2023-05-07T01:14:38;9.70;;;6.78;;
42000;SDS011;27689;48.390;10.856;2023-05-07T01:17:22;9.63;;;6.33;;
42000;SDS011;27689;48.390;10.856;2023-05-07T01:20:07;6.75;;;5.97;;
42000;SDS011;27689;48.390;10.856;2023-05-07T01:22:52;7.18;;;5.82;;
42000;SDS011;27689;48.390;10.856;2023-05-07T01:25:36;7.60;;;6.72;;
42000;SDS011;27689;48.390;10.856;2023-05-07T01:28:20;6.28;;;5.38;;
42000;SDS011;27689;48.390;10.856;2023-05-07T01:31:04;6.43;;;5.72;;
42000;SDS011;27689;48.390;10.856;2023-05-07T01:33:49;7.53;;;6.65;;
42000;SDS011;27689;48.390;10.856;2023-05-07T01:36:35;8.43;;;5.90;;
42000;SDS011;27689;48.390;10.856;2023-05-07T01:39:23;8.27;;;5.93;;
42000;SDS011;27689;48.390;10.856;2023-05-07T01:42:09;7.65;;;5.88;;
42000;SDS011;27689;48.390;10.856;2023-05-07T01:44:53;6.45;;;5.55;;
42000;SDS011;27689;48.390;10.856;2023-05-07T01:47:37;8.32;;;5.90;;
42000;SDS011;27689;48.390;10.856;2023-05-07T01:50:21;6.35;;;4.90;;
42000;SDS011;27689;48.390;10.856;2023-05-07T01:53:05;7.27;;;5.77;;
42000;SDS011;27689;48.390;10.856;2023-05-07T01:55:49;7.45;;;5.30;;
42000;SDS011;27689;48.390;10.856;2023-05-07T01:58:33;6.70;;;5.23;;
42000;SDS011;27689;48.390;10.856;2023-05-07T02:01:17;5.88;;;5.28;;
42000;SDS011;27689;48.390;10.856;2023-05-07T02:04:01;9.95;;;5.35;;
42000;SDS011;27689;48.390;10.856;2023-05-07T02:06:45;7.20;;;5.45;;
42000;SDS011;27689;48.390;10.856;2023-05-07T02:09:29;7.32;;;5.00;;
42000;SDS011;27689;48.390;10.856;2023-05-07T02:12:13;5.78;;;5.10;;
42000;SDS011;27689;48.390;10.856;2023-05-07T02:14:57;6.20;;;5.00;;
42000;SDS011;27689;48.390;10.856;2023-05-07T02:18:00;6.40;;;5.00;;
42000;SDS011;27689;48.390;10.856;2023-05-07T02:20:46;7.13;;;5.00;;
42000;SDS011;27689;48.390;10.856;2023-05-07T02:23:30;6.45;;;4.80;;
42000;SDS011;27689;48.390;10.856;2023-05-07T02:26:14;6.37;;;4.70;;
42000;SDS011;27689;48.390;10.856;2023-05-07T02:28:58;6.60;;;4.28;;
42000;SDS011;27689;48.390;10.856;2023-05-07T02:31:42;11.40;;;5.30;;
42000;SDS011;27689;48.390;10.856;2023-05-07T02:34:26;5.90;;;5.20;;
42000;SDS011;27689;48.390;10.856;2023-05-07T02:37:10;6.32;;;5.25;;
42000;SDS011;27689;48.390;10.856;2023-05-07T02:39:54;7.05;;;5.05;;
42000;SDS011;27689;48.390;10.856;2023-05-07T02:42:38;6.37;;;5.07;;
42000;SDS011;27689;48.390;10.856;2023-05-07T02:45:22;5.75;;;4.82;;
42000;SDS011;27689;48.390;10.856;2023-05-07T02:48:06;5.78;;;5.10;;
42000;SDS011;27689;48.390;10.856;2023-05-07T02:50:49;7.70;;;6.03;;
42000;SDS011;27689;48.390;10.856;2023-05-07T02:53:33;6.32;;;5.15;;
42000;SDS011;27689;48.390;10.856;2023-05-07T02:56:17;7.85;;;5.90;;
42000;SDS011;27689;48.390;10.856;2023-05-07T02:59:01;7.93;;;5.70;;
42000;SDS011;27689;48.390;10.856;2023-05-07T03:01:45;7.18;;;5.63;;
42000;SDS011;27689;48.390;10.856;2023-05-07T03:04:29;8.65;;;5.93;;
42000;SDS011;27689;48.390;10.856;2023-05-07T03:07:13;8.35;;;6.03;;
42000;SDS011;27689;48.390;10.856;2023-05-07T03:09:58;8.80;;;6.05;;
42000;SDS011;27689;48.390;10.856;2023-05-07T03:12:42;11.70;;;6.10;;
42000;SDS011;27689;48.390;10.856;2023-05-07T03:15:26;8.95;;;6.80;;
42000;SDS011;27689;48.390;10.856;2023-05-07T03:18:09;7.90;;;6.13;;
42000;SDS011;27689;48.390;10.856;2023-05-07T03:20:54;7.78;;;6.40;;
42000;SDS011;27689;48.390;10.856;2023-05-07T03:23:37;7.57;;;6.00;;
42000;SDS011;27689;48.390;10.856;2023-05-07T03:26:22;7.97;;;6.18;;
42000;SDS011;27689;48.390;10.856;2023-05-07T03:29:05;8.75;;;5.82;;
42000;SDS011;27689;48.390;10.856;2023-05-07T03:31:49;8.70;;;7.00;;
42000;SDS011;27689;48.390;10.856;2023-05-07T03:34:33;7.33;;;6.03;;
42000;SDS011;27689;48.390;10.856;2023-05-07T03:37:18;7.10;;;5.30;;
42000;SDS011;27689;48.390;10.856;2023-05-07T03:40:02;7.22;;;5.13;;
42000;SDS011;27689;48.390;10.856;2023-05-07T03:42:47;7.88;;;5.35;;
42000;SDS011;27689;48.390;10.856;2023-05-07T03:45:31;5.80;;;4.93;;
42000;SDS011;27689;48.390;10.856;2023-05-07T03:48:14;6.45;;;5.45;;
42000;SDS011;27689;48.390;10.856;2023-05-07T03:50:58;5.87;;;5.07;;
42000;SDS011;27689;48.390;10.856;2023-05-07T03:53:42;6.03;;;5.15;;
42000;SDS011;27689;48.390;10.856;2023-05-07T03:56:26;6.13;;;4.93;;
42000;SDS011;27689;48.390;10.856;2023-05-07T03:59:12;6.93;;;5.07;;
42000;SDS011;27689;48.390;10.856;2023-05-07T04:01:56;6.28;;;4.72;;
42000;SDS011;27689;48.390;10.856;2023-05-07T04:04:41;5.53;;;5.03;;
42000;SDS011;27689;48.390;10.856;2023-05-07T04:07:25;6.60;;;5.00;;
42000;SDS011;27689;48.390;10.856;2023-05-07T04:10:09;5.50;;;4.82;;
42000;SDS011;27689;48.390;10.856;2023-05-07T04:12:53;8.70;;;5.07;;
42000;SDS011;27689;48.390;10.856;2023-05-07T04:15:37;6.10;;;4.90;;
42000;SDS011;27689;48.390;10.856;2023-05-07T04:18:21;4.95;;;4.47;;
42000;SDS011;27689;48.390;10.856;2023-05-07T04:21:05;6.47;;;5.10;;
42000;SDS011;27689;48.390;10.856;2023-05-07T04:23:56;5.75;;;4.70;;
42000;SDS011;27689;48.390;10.856;2023-05-07T04:26:40;5.93;;;4.63;;
42000;SDS011;27689;48.390;10.856;2023-05-07T04:29:24;5.90;;;5.30;;
42000;SDS011;27689;48.390;10.856;2023-05-07T04:32:09;7.97;;;5.10;;
42000;SDS011;27689;48.390;10.856;2023-05-07T04:34:53;5.90;;;4.90;;
42000;SDS011;27689;48.390;10.856;2023-05-07T04:37:37;8.17;;;5.33;;
42000;SDS011;27689;48.390;10.856;2023-05-07T04:40:21;6.53;;;5.18;;
42000;SDS011;27689;48.390;10.856;2023-05-07T04:43:05;6.47;;;5.22;;
42000;SDS011;27689;48.390;10.856;2023-05-07T04:45:51;6.63;;;5.03;;
42000;SDS011;27689;48.390;10.856;2023-05-07T04:48:35;5.90;;;4.95;;
42000;SDS011;27689;48.390;10.856;2023-05-07T04:51:19;6.13;;;5.07;;
42000;SDS011;27689;48.390;10.856;2023-05-07T04:54:03;5.60;;;5.00;;
42000;SDS011;27689;48.390;10.856;2023-05-07T04:56:47;7.30;;;5.70;;
42000;SDS011;27689;48.390;10.856;2023-05-07T04:59:31;6.77;;;5.53;;
42000;SDS011;27689;48.390;10.856;2023-05-07T05:02:15;7.75;;;5.80;;
42000;SDS011;27689;48.390;10.856;2023-05-07T05:05:00;7.00;;;6.30;;
42000;SDS011;27689;48.390;10.856;2023-05-07T05:07:45;7.00;;;6.30;;
42000;SDS011;27689;48.390;10.856;2023-05-07T05:10:29;7.33;;;6.10;;
42000;SDS011;27689;48.390;10.856;2023-05-07T05:13:13;7.15;;;6.28;;
42000;SDS011;27689;48.390;10.856;2023-05-07T05:15:57;7.20;;;6.27;;
42000;SDS011;27689;48.390;10.856;2023-05-07T05:18:41;7.50;;;6.45;;
42000;SDS011;27689;48.390;10.856;2023-05-07T05:21:25;7.33;;;6.17;;
42000;SDS011;27689;48.390;10.856;2023-05-07T05:24:09;8.05;;;6.40;;
42000;SDS011;27689;48.390;10.856;2023-05-07T05:26:53;12.63;;;8.05;;
42000;SDS011;27689;48.390;10.856;2023-05-07T05:29:38;7.70;;;6.60;;
42000;SDS011;27689;48.390;10.856;2023-05-07T05:32:21;7.15;;;6.25;;
42000;SDS011;27689;48.390;10.856;2023-05-07T05:35:05;8.68;;;6.70;;
42000;SDS011;27689;48.390;10.856;2023-05-07T05:37:50;9.10;;;7.22;;
42000;SDS011;27689;48.390;10.856;2023-05-07T05:40:34;7.72;;;6.32;;
42000;SDS011;27689;48.390;10.856;2023-05-07T05:43:18;9.15;;;7.13;;
42000;SDS011;27689;48.390;10.856;2023-05-07T05:46:02;8.35;;;6.50;;
42000;SDS011;27689;48.390;10.856;2023-05-07T05:48:47;7.25;;;6.55;;
42000;SDS011;27689;48.390;10.856;2023-05-07T05:51:31;8.30;;;6.35;;
42000;SDS011;27689;48.390;10.856;2023-05-07T05:54:15;6.47;;;5.88;;
42000;SDS011;27689;48.390;10.856;2023-05-07T05:56:59;8.05;;;6.78;;
42000;SDS011;27689;48.390;10.856;2023-05-07T05:59:43;9.93;;;7.33;;
42000;SDS011;27689;48.390;10.856;2023-05-07T06:02:27;6.95;;;5.75;;
42000;SDS011;27689;48.390;10.856;2023-05-07T06:05:11;8.38;;;6.30;;
42000;SDS011;27689;48.390;10.856;2023-05-07T06:07:55;7.28;;;5.95;;
42000;SDS011;27689;48.390;10.856;2023-05-07T06:10:39;7.73;;;6.90;;
42000;SDS011;27689;48.390;10.856;2023-05-07T06:13:23;7.95;;;6.60;;
42000;SDS011;27689;48.390;10.856;2023-05-07T06:16:07;7.15;;;6.28;;
42000;SDS011;27689;48.390;10.856;2023-05-07T06:18:52;9.40;;;6.90;;
42000;SDS011;27689;48.390;10.856;2023-05-07T06:21:36;7.53;;;6.80;;
42000;SDS011;27689;48.390;10.856;2023-05-07T06:24:19;7.85;;;6.43;;
42000;SDS011;27689;48.390;10.856;2023-05-07T06:27:03;7.10;;;6.10;;
42000;SDS011;27689;48.390;10.856;2023-05-07T06:29:48;7.82;;;7.03;;
42000;SDS011;27689;48.390;10.856;2023-05-07T06:32:32;8.95;;;6.43;;
42000;SDS011;27689;48.390;10.856;2023-05-07T06:35:16;9.43;;;6.77;;
42000;SDS011;27689;48.390;10.856;2023-05-07T06:38:00;9.00;;;6.72;;
42000;SDS011;27689;48.390;10.856;2023-05-07T06:40:47;6.72;;;5.68;;
42000;SDS011;27689;48.390;10.856;2023-05-07T06:43:32;7.57;;;6.47;;
42000;SDS011;27689;48.390;10.856;2023-05-07T06:46:17;9.32;;;6.53;;
42000;SDS011;27689;48.390;10.856;2023-05-07T06:49:01;10.07;;;6.45;;
42000;SDS011;27689;48.390;10.856;2023-05-07T06:51:46;7.90;;;6.55;;
42000;SDS011;27689;48.390;10.856;2023-05-07T06:54:30;7.68;;;6.72;;
42000;SDS011;27689;48.390;10.856;2023-05-07T06:57:16;6.88;;;6.18;;
42000;SDS011;27689;48.390;10.856;2023-05-07T07:02:44;7.45;;;5.82;;
42000;SDS011;27689;48.390;10.856;2023-05-07T07:05:28;6.90;;;5.97;;
42000;SDS011;27689;48.390;10.856;2023-05-07T07:08:12;7.32;;;6.50;;
42000;SDS011;27689;48.390;10.856;2023-05-07T07:10:56;6.53;;;5.93;;
42000;SDS011;27689;48.390;10.856;2023-05-07T07:13:40;7.72;;;6.53;;
42000;SDS011;27689;48.390;10.856;2023-05-07T07:16:24;7.20;;;6.38;;
42000;SDS011;27689;48.390;10.856;2023-05-07T07:19:09;7.65;;;6.00;;
42000;SDS011;27689;48.390;10.856;2023-05-07T07:21:53;7.90;;;6.40;;
42000;SDS011;27689;48.390;10.856;2023-05-07T07:24:36;7.60;;;6.80;;
42000;SDS011;27689;48.390;10.856;2023-05-07T07:27:20;11.55;;;6.60;;
42000;SDS011;27689;48.390;10.856;2023-05-07T07:30:05;9.63;;;7.27;;
42000;SDS011;27689;48.390;10.856;2023-05-07T07:32:50;8.18;;;6.78;;
42000;SDS011;27689;48.390;10.856;2023-05-07T07:35:35;7.50;;;6.68;;
42000;SDS011;27689;48.390;10.856;2023-05-07T07:38:19;7.97;;;7.18;;
42000;SDS011;27689;48.390;10.856;2023-05-07T07:41:03;6.47;;;5.70;;
42000;SDS011;27689;48.390;10.856;2023-05-07T07:43:47;6.68;;;5.97;;
42000;SDS011;27689;48.390;10.856;2023-05-07T07:46:31;8.70;;;7.25;;
42000;SDS011;27689;48.390;10.856;2023-05-07T07:49:15;7.53;;;6.67;;
42000;SDS011;27689;48.390;10.856;2023-05-07T07:52:00;7.32;;;6.28;;
42000;SDS011;27689;48.390;10.856;2023-05-07T07:54:44;8.60;;;7.07;;
42000;SDS011;27689;48.390;10.856;2023-05-07T07:57:28;7.10;;;5.90;;
42000;SDS011;27689;48.390;10.856;2023-05-07T08:00:12;8.80;;;6.40;;
42000;SDS011;27689;48.390;10.856;2023-05-07T08:02:57;8.45;;;5.85;;
42000;SDS011;27689;48.390;10.856;2023-05-07T08:05:41;7.30;;;5.87;;
42000;SDS011;27689;48.390;10.856;2023-05-07T08:08:25;7.50;;;6.68;;
42000;SDS011;27689;48.390;10.856;2023-05-07T08:11:09;8.13;;;6.25;;
42000;SDS011;27689;48.390;10.856;2023-05-07T08:13:54;6.93;;;5.43;;
42000;SDS011;27689;48.390;10.856;2023-05-07T08:16:38;7.35;;;6.15;;
42000;SDS011;27689;48.390;10.856;2023-05-07T08:19:23;5.13;;;4.53;;
42000;SDS011;27689;48.390;10.856;2023-05-07T08:22:07;6.57;;;4.53;;
42000;SDS011;27689;48.390;10.856;2023-05-07T08:24:50;10.90;;;5.38;;
42000;SDS011;27689;48.390;10.856;2023-05-07T08:27:35;5.93;;;4.80;;
42000;SDS011;27689;48.390;10.856;2023-05-07T08:30:19;5.78;;;4.63;;
42000;SDS011;27689;48.390;10.856;2023-05-07T08:33:03;5.25;;;4.55;;
42000;SDS011;27689;48.390;10.856;2023-05-07T08:35:46;5.00;;;4.32;;
42000;SDS011;27689;48.390;10.856;2023-05-07T08:38:30;7.07;;;4.40;;
42000;SDS011;27689;48.390;10.856;2023-05-07T08:41:15;4.95;;;4.20;;
42000;SDS011;27689;48.390;10.856;2023-05-07T08:43:59;4.45;;;3.83;;
42000;SDS011;27689;48.390;10.856;2023-05-07T08:46:47;4.43;;;3.80;;
42000;SDS011;27689;48.390;10.856;2023-05-07T08:49:37;4.15;;;3.78;;
42000;SDS011;27689;48.390;10.856;2023-05-07T08:52:21;4.63;;;4.22;;
42000;SDS011;27689;48.390;10.856;2023-05-07T08:55:06;4.82;;;3.47;;
42000;SDS011;27689;48.390;10.856;2023-05-07T08:57:51;4.13;;;3.22;;
42000;SDS011;27689;48.390;10.856;2023-05-07T09:00:36;5.38;;;3.30;;
42000;SDS011;27689;48.390;10.856;2023-05-07T09:03:22;4.78;;;3.15;;
42000;SDS011;27689;48.390;10.856;2023-05-07T09:06:06;5.90;;;3.70;;
42000;SDS011;27689;48.390;10.856;2023-05-07T09:08:50;4.18;;;3.50;;
42000;SDS011;27689;48.390;10.856;2023-05-07T09:11:35;5.55;;;3.88;;
42000;SDS011;27689;48.390;10.856;2023-05-07T09:14:21;7.22;;;5.10;;
42000;SDS011;27689;48.390;10.856;2023-05-07T09:17:05;4.22;;;3.83;;
42000;SDS011;27689;48.390;10.856;2023-05-07T09:19:49;3.78;;;3.38;;
42000;SDS011;27689;48.390;10.856;2023-05-07T09:22:33;4.80;;;2.95;;
42000;SDS011;27689;48.390;10.856;2023-05-07T09:25:27;6.40;;;3.22;;
42000;SDS011;27689;48.390;10.856;2023-05-07T09:28:15;3.42;;;2.42;;
42000;SDS011;27689;48.390;10.856;2023-05-07T09:30:59;3.20;;;2.40;;
42000;SDS011;27689;48.390;10.856;2023-05-07T09:33:43;2.97;;;1.92;;
42000;SDS011;27689;48.390;10.856;2023-05-07T09:36:27;3.80;;;2.13;;
42000;SDS011;27689;48.390;10.856;2023-05-07T09:39:11;2.28;;;2.08;;
42000;SDS011;27689;48.390;10.856;2023-05-07T09:41:56;5.75;;;2.22;;
42000;SDS011;27689;48.390;10.856;2023-05-07T09:44:45;3.47;;;2.13;;
42000;SDS011;27689;48.390;10.856;2023-05-07T09:47:31;2.00;;;1.40;;
42000;SDS011;27689;48.390;10.856;2023-05-07T09:50:16;3.00;;;1.70;;
42000;SDS011;27689;48.390;10.856;2023-05-07T09:53:01;1.88;;;1.40;;
42000;SDS011;27689;48.390;10.856;2023-05-07T09:55:47;1.35;;;1.05;;
42000;SDS011;27689;48.390;10.856;2023-05-07T09:58:32;2.80;;;1.45;;
42000;SDS011;27689;48.390;10.856;2023-05-07T10:01:20;2.50;;;1.13;;
42000;SDS011;27689;48.390;10.856;2023-05-07T10:04:05;2.00;;;1.20;;
42000;SDS011;27689;48.390;10.856;2023-05-07T10:06:52;3.80;;;0.90;;
42000;SDS011;27689;48.390;10.856;2023-05-07T10:12:22;2.58;;;1.27;;
42000;SDS011;27689;48.390;10.856;2023-05-07T10:15:10;1.80;;;1.33;;
42000;SDS011;27689;48.390;10.856;2023-05-07T10:17:55;1.30;;;1.10;;
42000;SDS011;27689;48.390;10.856;2023-05-07T10:20:39;3.88;;;1.20;;
42000;SDS011;27689;48.390;10.856;2023-05-07T10:23:26;1.45;;;0.95;;
42000;SDS011;27689;48.390;10.856;2023-05-07T10:26:11;3.70;;;1.08;;
42000;SDS011;27689;48.390;10.856;2023-05-07T10:29:03;1.17;;;1.05;;
42000;SDS011;27689;48.390;10.856;2023-05-07T10:31:55;8.55;;;6.80;;
42000;SDS011;27689;48.390;10.856;2023-05-07T10:34:48;4.85;;;3.42;;
42000;SDS011;27689;48.390;10.856;2023-05-07T10:37:34;2.78;;;0.90;;
42000;SDS011;27689;48.390;10.856;2023-05-07T10:40:20;1.83;;;1.13;;
42000;SDS011;27689;48.390;10.856;2023-05-07T10:43:04;3.08;;;1.30;;
42000;SDS011;27689;48.390;10.856;2023-05-07T10:52:10;1.77;;;1.00;;
42000;SDS011;27689;48.390;10.856;2023-05-07T11:01:04;3.42;;;1.30;;
42000;SDS011;27689;48.390;10.856;2023-05-07T11:15:35;2.28;;;1.05;;
42000;SDS011;27689;48.390;10.856;2023-05-07T11:18:20;1.92;;;1.10;;
42000;SDS011;27689;48.390;10.856;2023-05-07T11:21:05;1.70;;;1.00;;
42000;SDS011;27689;48.390;10.856;2023-05-07T11:26:48;2.15;;;1.13;;
42000;SDS011;27689;48.390;10.856;2023-05-07T11:29:33;3.63;;;1.35;;
42000;SDS011;27689;48.390;10.856;2023-05-07T11:32:24;2.03;;;1.20;;
42000;SDS011;27689;48.390;10.856;2023-05-07T11:35:12;5.38;;;1.23;;
42000;SDS011;27689;48.390;10.856;2023-05-07T11:37:59;1.70;;;1.17;;
42000;SDS011;27689;48.390;10.856;2023-05-07T11:43:34;1.10;;;0.90;;
42000;SDS011;27689;48.390;10.856;2023-05-07T11:46:23;1.55;;;0.90;;
42000;SDS011;27689;48.390;10.856;2023-05-07T11:49:07;3.22;;;1.50;;
42000;SDS011;27689;48.390;10.856;2023-05-07T11:54:36;1.38;;;1.10;;
42000;SDS011;27689;48.390;10.856;2023-05-07T11:57:21;4.87;;;1.33;;
42000;SDS011;27689;48.390;10.856;2023-05-07T12:00:08;5.18;;;1.55;;
42000;SDS011;27689;48.390;10.856;2023-05-07T12:02:53;3.35;;;1.30;;
42000;SDS011;27689;48.390;10.856;2023-05-07T12:05:37;1.30;;;1.05;;
42000;SDS011;27689;48.390;10.856;2023-05-07T12:08:25;2.55;;;1.30;;
42000;SDS011;27689;48.390;10.856;2023-05-07T12:11:10;1.10;;;1.00;;
42000;SDS011;27689;48.390;10.856;2023-05-07T12:13:57;1.48;;;1.38;;
42000;SDS011;27689;48.390;10.856;2023-05-07T12:16:41;4.33;;;1.53;;
42000;SDS011;27689;48.390;10.856;2023-05-07T12:19:26;4.88;;;1.27;;
42000;SDS011;27689;48.390;10.856;2023-05-07T12:22:10;2.28;;;1.58;;
42000;SDS011;27689;48.390;10.856;2023-05-07T12:24:58;3.53;;;1.75;;
42000;SDS011;27689;48.390;10.856;2023-05-07T12:27:42;2.22;;;1.40;;
42000;SDS011;27689;48.390;10.856;2023-05-07T12:30:26;1.77;;;1.25;;
42000;SDS011;27689;48.390;10.856;2023-05-07T12:33:11;2.00;;;1.20;;
42000;SDS011;27689;48.390;10.856;2023-05-07T12:35:55;2.53;;;1.52;;
42000;SDS011;27689;48.390;10.856;2023-05-07T12:38:39;2.38;;;1.38;;
42000;SDS011;27689;48.390;10.856;2023-05-07T12:41:27;3.67;;;1.38;;
42000;SDS011;27689;48.390;10.856;2023-05-07T12:44:14;1.20;;;1.00;;
42000;SDS011;27689;48.390;10.856;2023-05-07T12:47:01;2.35;;;1.33;;
42000;SDS011;27689;48.390;10.856;2023-05-07T12:49:45;2.40;;;1.30;;
42000;SDS011;27689;48.390;10.856;2023-05-07T12:52:30;2.33;;;1.80;;
42000;SDS011;27689;48.390;10.856;2023-05-07T12:55:15;2.50;;;1.50;;
42000;SDS011;27689;48.390;10.856;2023-05-07T12:58:00;4.03;;;1.80;;
42000;SDS011;27689;48.390;10.856;2023-05-07T13:00:45;1.60;;;1.38;;
42000;SDS011;27689;48.390;10.856;2023-05-07T13:03:33;2.90;;;1.42;;
42000;SDS011;27689;48.390;10.856;2023-05-07T13:06:18;2.80;;;1.50;;
42000;SDS011;27689;48.390;10.856;2023-05-07T13:09:02;3.97;;;1.30;;
42000;SDS011;27689;48.390;10.856;2023-05-07T13:11:46;2.67;;;1.50;;
42000;SDS011;27689;48.390;10.856;2023-05-07T13:14:31;1.20;;;1.10;;
42000;SDS011;27689;48.390;10.856;2023-05-07T13:17:15;3.80;;;1.40;;
42000;SDS011;27689;48.390;10.856;2023-05-07T13:19:59;4.07;;;1.50;;
42000;SDS011;27689;48.390;10.856;2023-05-07T13:22:43;2.80;;;1.30;;
42000;SDS011;27689;48.390;10.856;2023-05-07T13:25:27;2.77;;;1.47;;
42000;SDS011;27689;48.390;10.856;2023-05-07T13:28:11;1.75;;;1.17;;
42000;SDS011;27689;48.390;10.856;2023-05-07T13:30:55;1.92;;;1.45;;
42000;SDS011;27689;48.390;10.856;2023-05-07T13:33:39;2.20;;;1.48;;
42000;SDS011;27689;48.390;10.856;2023-05-07T13:36:23;3.40;;;1.90;;
42000;SDS011;27689;48.390;10.856;2023-05-07T13:39:07;1.63;;;1.30;;
42000;SDS011;27689;48.390;10.856;2023-05-07T13:41:52;3.60;;;1.88;;
42000;SDS011;27689;48.390;10.856;2023-05-07T13:44:36;2.53;;;1.70;;
42000;SDS011;27689;48.390;10.856;2023-05-07T13:47:20;2.40;;;1.80;;
42000;SDS011;27689;48.390;10.856;2023-05-07T13:50:04;4.32;;;1.70;;
42000;SDS011;27689;48.390;10.856;2023-05-07T13:52:49;4.60;;;1.63;;
42000;SDS011;27689;48.390;10.856;2023-05-07T13:55:35;5.50;;;1.80;;
42000;SDS011;27689;48.390;10.856;2023-05-07T13:58:20;3.67;;;1.70;;
42000;SDS011;27689;48.390;10.856;2023-05-07T14:01:03;3.15;;;1.80;;
42000;SDS011;27689;48.390;10.856;2023-05-07T14:03:48;2.05;;;1.50;;
42000;SDS011;27689;48.390;10.856;2023-05-07T14:06:32;2.33;;;1.42;;
42000;SDS011;27689;48.390;10.856;2023-05-07T14:09:15;2.27;;;1.40;;
42000;SDS011;27689;48.390;10.856;2023-05-07T14:11:59;3.97;;;1.53;;
42000;SDS011;27689;48.390;10.856;2023-05-07T14:14:45;2.92;;;1.52;;
42000;SDS011;27689;48.390;10.856;2023-05-07T14:17:30;2.28;;;1.30;;
42000;SDS011;27689;48.390;10.856;2023-05-07T14:20:14;2.70;;;1.80;;
42000;SDS011;27689;48.390;10.856;2023-05-07T14:22:58;4.65;;;1.70;;
42000;SDS011;27689;48.390;10.856;2023-05-07T14:25:41;1.97;;;1.40;;
42000;SDS011;27689;48.390;10.856;2023-05-07T14:31:10;2.58;;;1.52;;
42000;SDS011;27689;48.390;10.856;2023-05-07T14:33:55;5.75;;;1.80;;
42000;SDS011;27689;48.390;10.856;2023-05-07T14:36:41;2.42;;;1.45;;
42000;SDS011;27689;48.390;10.856;2023-05-07T14:39:25;3.38;;;1.50;;
42000;SDS011;27689;48.390;10.856;2023-05-07T14:42:09;2.78;;;1.52;;
42000;SDS011;27689;48.390;10.856;2023-05-07T14:44:53;3.33;;;1.50;;
42000;SDS011;27689;48.390;10.856;2023-05-07T14:47:37;1.70;;;1.42;;
42000;SDS011;27689;48.390;10.856;2023-05-07T14:50:21;2.95;;;1.90;;
42000;SDS011;27689;48.390;10.856;2023-05-07T14:53:05;3.20;;;1.55;;
42000;SDS011;27689;48.390;10.856;2023-05-07T14:55:49;3.23;;;1.73;;
42000;SDS011;27689;48.390;10.856;2023-05-07T14:58:33;2.10;;;1.60;;
42000;SDS011;27689;48.390;10.856;2023-05-07T15:01:18;3.72;;;1.70;;
42000;SDS011;27689;48.390;10.856;2023-05-07T15:04:03;2.38;;;1.50;;
42000;SDS011;27689;48.390;10.856;2023-05-07T15:06:48;3.40;;;1.60;;
42000;SDS011;27689;48.390;10.856;2023-05-07T15:09:32;3.85;;;1.70;;
42000;SDS011;27689;48.390;10.856;2023-05-07T15:12:16;3.00;;;1.65;;
42000;SDS011;27689;48.390;10.856;2023-05-07T15:15:00;2.90;;;1.80;;
42000;SDS011;27689;48.390;10.856;2023-05-07T15:17:44;4.97;;;1.90;;
42000;SDS011;27689;48.390;10.856;2023-05-07T15:20:27;2.58;;;2.03;;
42000;SDS011;27689;48.390;10.856;2023-05-07T15:23:12;2.17;;;1.67;;
42000;SDS011;27689;48.390;10.856;2023-05-07T15:25:57;3.55;;;1.58;;
42000;SDS011;27689;48.390;10.856;2023-05-07T15:28:41;1.92;;;1.60;;
42000;SDS011;27689;48.390;10.856;2023-05-07T15:31:25;2.53;;;1.58;;
42000;SDS011;27689;48.390;10.856;2023-05-07T15:34:09;3.15;;;1.50;;
42000;SDS011;27689;48.390;10.856;2023-05-07T15:36:54;2.28;;;1.90;;
42000;SDS011;27689;48.390;10.856;2023-05-07T15:39:40;2.95;;;1.80;;
42000;SDS011;27689;48.390;10.856;2023-05-07T15:42:24;3.50;;;1.90;;
42000;SDS011;27689;48.390;10.856;2023-05-07T15:45:08;3.25;;;1.90;;
42000;SDS011;27689;48.390;10.856;2023-05-07T15:47:53;2.50;;;1.40;;
42000;SDS011;27689;48.390;10.856;2023-05-07T15:50:37;2.93;;;1.90;;
42000;SDS011;27689;48.390;10.856;2023-05-07T15:53:21;2.45;;;1.73;;
42000;SDS011;27689;48.390;10.856;2023-05-07T15:56:05;1.80;;;1.70;;
42000;SDS011;27689;48.390;10.856;2023-05-07T15:58:49;2.00;;;1.60;;
42000;SDS011;27689;48.390;10.856;2023-05-07T16:01:33;4.00;;;1.80;;
42000;SDS011;27689;48.390;10.856;2023-05-07T16:04:18;2.72;;;1.85;;
42000;SDS011;27689;48.390;10.856;2023-05-07T16:07:02;2.23;;;1.80;;
42000;SDS011;27689;48.390;10.856;2023-05-07T16:09:46;4.00;;;1.80;;
42000;SDS011;27689;48.390;10.856;2023-05-07T16:12:30;2.03;;;1.80;;
42000;SDS011;27689;48.390;10.856;2023-05-07T16:15:14;2.40;;;1.70;;
42000;SDS011;27689;48.390;10.856;2023-05-07T16:17:58;2.35;;;2.05;;
42000;SDS011;27689;48.390;10.856;2023-05-07T16:20:42;2.30;;;2.00;;
42000;SDS011;27689;48.390;10.856;2023-05-07T16:23:26;2.55;;;1.85;;
42000;SDS011;27689;48.390;10.856;2023-05-07T16:26:10;2.30;;;1.67;;
42000;SDS011;27689;48.390;10.856;2023-05-07T16:28:56;2.63;;;1.67;;
42000;SDS011;27689;48.390;10.856;2023-05-07T16:31:40;2.20;;;1.90;;
42000;SDS011;27689;48.390;10.856;2023-05-07T16:34:24;2.78;;;2.00;;
42000;SDS011;27689;48.390;10.856;2023-05-07T16:37:08;3.03;;;1.75;;
42000;SDS011;27689;48.390;10.856;2023-05-07T16:39:52;1.98;;;1.75;;
42000;SDS011;27689;48.390;10.856;2023-05-07T16:42:36;1.70;;;1.60;;
42000;SDS011;27689;48.390;10.856;2023-05-07T16:48:05;4.07;;;1.95;;
42000;SDS011;27689;48.390;10.856;2023-05-07T16:50:50;2.95;;;1.63;;
42000;SDS011;27689;48.390;10.856;2023-05-07T16:53:34;6.43;;;1.97;;
42000;SDS011;27689;48.390;10.856;2023-05-07T16:56:18;3.40;;;2.33;;
42000;SDS011;27689;48.390;10.856;2023-05-07T16:59:02;2.30;;;1.87;;
42000;SDS011;27689;48.390;10.856;2023-05-07T17:01:46;2.95;;;1.70;;